Time;durP1;ratioP1;P1;durP2;ratioP2;P2;SDS_P1;SDS_P2;PMS_P1;PMS_P2;Temp;Humidity;BMP_temperature;BMP_pressure;BME280_temperature;BME280_humidity;BME280_pressure;Samples;Min_cycle;Max_cycle;Signal;HPM_P1;HPM_P2
2022/12/02 00:01:04;;;;;;;7.97;3.72;;;;;;;2.47;84.00;102136.22;4923569;28;20150;-83
2022/12/02 00:03:29;;;;;;;3.42;2.58;;;;;;;2.59;83.86;102164.44;4955231;28;20109;-83
2022/12/02 00:05:55;;;;;;;6.38;3.20;;;;;;;2.76;84.55;102184.16;4939338;28;20038;-83
2022/12/02 00:08:27;;;;;;;9.10;3.92;;;;;;;2.83;83.96;102201.25;4939149;28;20026;-83
2022/12/02 00:10:54;;;;;;;5.23;2.87;;;;;;;2.74;84.05;102198.59;4938833;28;20026;-83
2022/12/02 00:13:26;;;;;;;5.63;3.45;;;;;;;2.72;83.48;102193.47;4923356;28;20034;-82
2022/12/02 00:15:55;;;;;;;7.75;2.97;;;;;;;2.64;83.65;102184.03;4938988;28;20027;-82
2022/12/02 00:18:21;;;;;;;15.07;5.80;;;;;;;2.79;83.74;102189.28;4954170;28;20579;-82
2022/12/02 00:20:46;;;;;;;3.90;2.83;;;;;;;2.82;84.09;102194.41;4922623;28;20125;-83
2022/12/02 00:23:12;;;;;;;2.60;2.05;;;;;;;2.77;84.54;102180.75;4922439;28;20027;-82
2022/12/02 00:25:37;;;;;;;6.30;4.13;;;;;;;2.51;84.13;102140.50;4937895;28;20031;-83
2022/12/02 00:28:03;;;;;;;6.90;3.67;;;;;;;2.90;84.63;102197.03;4954063;28;20464;-83
2022/12/02 00:30:28;;;;;;;3.20;2.70;;;;;;;2.84;84.40;102190.16;4954043;28;20109;-83
2022/12/02 00:32:54;;;;;;;6.72;3.30;;;;;;;2.72;84.33;102190.94;4953880;28;20026;-83
2022/12/02 00:35:20;;;;;;;7.20;4.28;;;;;;;2.69;84.20;102177.28;4937942;28;20456;-83
2022/12/02 00:37:45;;;;;;;5.75;3.75;;;;;;;2.80;84.13;102201.22;4937925;28;20508;-83
2022/12/02 00:40:11;;;;;;;5.47;2.45;;;;;;;2.63;84.18;102159.34;4937758;28;20038;-83
2022/12/02 00:42:37;;;;;;;5.80;3.17;;;;;;;2.43;84.50;102124.25;4938006;28;20026;-82
2022/12/02 00:47:47;;;;;;;6.80;3.95;;;;;;;2.74;84.33;102190.94;4942801;28;20045;-84
2022/12/02 00:50:12;;;;;;;13.20;3.83;;;;;;;2.66;84.46;102177.25;4921707;28;20404;-83
2022/12/02 00:52:38;;;;;;;7.30;4.38;;;;;;;2.64;84.75;102168.72;4953446;28;20037;-83
2022/12/02 00:55:04;;;;;;;2.78;2.50;;;;;;;2.57;84.88;102180.59;4953309;28;20472;-83
2022/12/02 00:57:29;;;;;;;4.72;3.78;;;;;;;2.59;84.97;102184.88;4953676;28;20491;-83
2022/12/02 00:59:55;;;;;;;7.43;3.53;;;;;;;2.57;85.44;102176.34;4937547;28;20373;-83
2022/12/02 01:02:20;;;;;;;9.07;4.32;;;;;;;2.64;84.64;102178.94;4938012;28;20050;-83
2022/12/02 01:04:46;;;;;;;7.22;3.65;;;;;;;2.67;85.04;102184.09;4937529;28;20034;-83
2022/12/02 01:07:11;;;;;;;8.18;4.05;;;;;;;2.73;85.41;102176.44;4938066;28;20027;-83
2022/12/02 01:09:37;;;;;;;8.80;3.75;;;;;;;2.72;84.88;102174.75;4937109;28;20019;-83
2022/12/02 01:12:02;;;;;;;4.88;3.35;;;;;;;2.78;84.37;102172.25;4953425;28;20027;-83
2022/12/02 01:14:28;;;;;;;7.15;2.00;;;;;;;2.73;84.45;102174.75;4937940;28;20027;-83
2022/12/02 01:16:53;;;;;;;2.85;2.45;;;;;;;2.76;84.92;102169.69;4897099;28;1177342;-83
2022/12/02 01:19:19;;;;;;;7.25;3.92;;;;;;;2.66;84.43;102147.47;4938116;28;20042;-83
2022/12/02 01:21:44;;;;;;;6.18;3.50;;;;;;;2.76;84.26;102161.16;4958241;28;20377;-83
2022/12/02 01:24:10;;;;;;;8.15;3.95;;;;;;;2.84;84.69;102182.50;4941904;28;20066;-83
2022/12/02 01:26:36;;;;;;;7.32;5.13;;;;;;;2.83;84.96;102179.09;4942188;28;20027;-83
2022/12/02 01:29:01;;;;;;;4.75;3.40;;;;;;;2.89;85.07;102183.41;4957831;28;20038;-82
2022/12/02 01:31:27;;;;;;;3.03;1.88;;;;;;;2.86;83.02;102175.72;4942145;28;20030;-83
2022/12/02 01:33:52;;;;;;;3.88;2.88;;;;;;;2.88;82.83;102171.47;4942272;28;20033;-83
2022/12/02 01:36:18;;;;;;;5.38;3.25;;;;;;;2.97;82.79;102181.75;4926087;28;20023;-82
2022/12/02 01:38:43;;;;;;;5.13;3.72;;;;;;;2.64;83.29;102127.81;4925685;28;20023;-82
2022/12/02 01:41:09;;;;;;;12.65;2.13;;;;;;;2.80;83.17;102147.56;4957762;28;20063;-83
2022/12/02 01:43:34;;;;;;;5.88;3.72;;;;;;;3.09;82.23;102184.41;4941543;28;20033;-83
2022/12/02 01:46:00;;;;;;;7.22;3.33;;;;;;;2.99;82.62;102182.63;4925946;28;20026;-83
2022/12/02 01:48:25;;;;;;;9.45;3.55;;;;;;;2.78;83.11;102165.44;4925720;28;20026;-83
2022/12/02 01:50:51;;;;;;;4.28;3.13;;;;;;;2.81;83.06;102162.03;4941417;28;20030;-83
2022/12/02 01:53:16;;;;;;;8.05;3.75;;;;;;;2.93;83.35;102186.81;4925441;28;20022;-83
2022/12/02 01:55:42;;;;;;;9.07;3.85;;;;;;;2.93;83.59;102181.72;4941411;28;20035;-83
2022/12/02 01:58:09;;;;;;;6.05;3.55;;;;;;;2.81;83.52;102162.03;4941871;28;20035;-82
2022/12/02 02:00:34;;;;;;;5.75;3.92;;;;;;;2.67;83.23;102131.28;4941599;28;20038;-83
2022/12/02 02:03:00;;;;;;;6.30;3.85;;;;;;;2.96;82.99;102177.50;4957302;28;20035;-83
2022/12/02 02:05:27;;;;;;;4.40;3.35;;;;;;;2.83;82.83;102155.22;4941318;28;20030;-82
2022/12/02 02:07:53;;;;;;;9.18;4.35;;;;;;;3.00;83.08;102178.38;4941545;28;20023;-83
2022/12/02 02:10:20;;;;;;;5.90;3.92;;;;;;;3.13;83.13;102188.69;4941498;28;20081;-82
2022/12/02 02:12:45;;;;;;;5.43;2.95;;;;;;;3.09;82.47;102184.41;4941328;28;20027;-82
2022/12/02 02:15:11;;;;;;;3.90;2.78;;;;;;;3.08;82.18;102187.81;4941361;28;20031;-83
2022/12/02 02:17:37;;;;;;;9.02;4.53;;;;;;;2.77;82.38;102134.75;4925052;28;20081;-83
2022/12/02 02:20:04;;;;;;;3.88;2.55;;;;;;;3.10;82.21;102185.25;4956950;28;20503;-83
2022/12/02 02:22:55;;;;;;;5.63;2.92;;;;;;;3.03;82.48;102183.50;4956556;28;20018;-82
2022/12/02 02:25:20;;;;;;;5.95;3.13;;;;;;;3.05;82.83;102190.34;4974350;28;20069;-82
2022/12/02 02:27:53;;;;;;;7.50;3.17;;;;;;;3.02;82.28;102185.19;4940781;28;20042;-82
2022/12/02 02:30:19;;;;;;;5.85;3.58;;;;;;;3.01;82.06;102180.94;4925604;28;20031;-83
2022/12/02 02:32:44;;;;;;;4.05;3.03;;;;;;;3.03;82.16;102194.56;4924985;28;20510;-82
2022/12/02 02:35:09;;;;;;;5.47;2.80;;;;;;;3.13;81.90;102195.50;4940324;28;20031;-83
2022/12/02 02:37:35;;;;;;;5.60;3.08;;;;;;;2.92;82.11;102168.06;4956670;28;20050;-83
2022/12/02 02:40:01;;;;;;;5.88;2.92;;;;;;;3.03;81.63;102178.38;4956809;28;20027;-84
2022/12/02 02:42:26;;;;;;;5.00;2.95;;;;;;;3.06;82.17;102186.09;4924850;28;20085;-83
2022/12/02 02:44:52;;;;;;;4.57;3.28;;;;;;;3.01;82.55;102185.19;4940797;28;20031;-83
2022/12/02 02:47:17;;;;;;;2.85;2.50;;;;;;;2.95;81.93;102173.25;4940282;28;20473;-82
2022/12/02 02:49:43;;;;;;;8.40;3.97;;;;;;;2.97;82.35;102175.78;4940650;28;20030;-82
2022/12/02 02:52:08;;;;;;;4.90;3.58;;;;;;;2.98;82.26;102188.59;4956222;28;20038;-84
2022/12/02 02:54:34;;;;;;;3.40;2.83;;;;;;;3.13;82.46;102201.47;4940277;28;20109;-82
2022/12/02 02:56:59;;;;;;;10.20;3.58;;;;;;;3.05;81.40;102195.47;4940557;28;20026;-82
2022/12/02 02:59:25;;;;;;;4.55;2.67;;;;;;;3.06;81.39;102199.72;4940379;28;20023;-83
2022/12/02 03:01:50;;;;;;;4.25;2.70;;;;;;;3.02;81.52;102192.88;4924591;28;20030;-83
2022/12/02 03:04:16;;;;;;;4.35;3.00;;;;;;;3.00;82.07;102198.81;4939922;28;20062;-83
2022/12/02 03:06:42;;;;;;;2.45;2.15;;;;;;;3.02;82.14;102187.75;4940341;28;20049;-82
2022/12/02 03:09:07;;;;;;;4.00;2.72;;;;;;;3.12;82.54;102199.75;4940258;28;20070;-83
2022/12/02 03:11:33;;;;;;;4.13;2.38;;;;;;;3.12;82.29;102194.63;4924208;28;20417;-82
2022/12/02 03:13:59;;;;;;;5.03;3.20;;;;;;;3.09;82.44;102184.41;4940212;28;20535;-82
2022/12/02 03:16:24;;;;;;;6.43;4.35;;;;;;;3.11;82.70;102187.81;4939872;28;20035;-82
2022/12/02 03:18:50;;;;;;;5.47;3.50;;;;;;;3.00;82.91;102179.22;4939776;28;20030;-82
2022/12/02 03:21:16;;;;;;;4.10;3.22;;;;;;;3.16;83.00;102195.53;4924254;28;20037;-83
2022/12/02 03:23:42;;;;;;;2.03;1.40;;;;;;;3.19;81.46;102192.13;4939842;28;20031;-84
2022/12/02 03:26:08;;;;;;;14.88;5.85;;;;;;;3.02;82.30;102174.97;4940270;28;20110;-82
2022/12/02 03:28:33;;;;;;;12.30;4.47;;;;;;;2.95;82.49;102163.00;4940034;28;20031;-82
2022/12/02 03:30:59;;;;;;;6.30;4.75;;;;;;;3.08;82.95;102185.25;4939931;28;20022;-83
2022/12/02 03:33:24;;;;;;;7.05;4.47;;;;;;;2.99;82.19;102162.16;4939487;28;20066;-83
2022/12/02 03:35:50;;;;;;;5.93;3.42;;;;;;;3.07;81.61;102170.75;4955394;28;20481;-82
2022/12/02 03:38:15;;;;;;;3.78;3.25;;;;;;;3.09;81.93;102194.63;4955929;28;20034;-83
2022/12/02 03:40:41;;;;;;;5.22;3.90;;;;;;;3.07;82.25;102182.69;4939713;28;20484;-83
2022/12/02 03:43:06;;;;;;;5.20;3.55;;;;;;;2.90;82.31;102161.25;4923376;28;20515;-83
2022/12/02 03:45:32;;;;;;;4.80;2.58;;;;;;;2.96;81.83;102180.06;4923779;28;20086;-82
2022/12/02 03:47:57;;;;;;;4.38;3.05;;;;;;;2.95;82.09;102165.56;4923355;28;20058;-83
2022/12/02 03:50:23;;;;;;;6.03;3.00;;;;;;;2.96;82.59;102151.94;4955421;28;20031;-81
2022/12/02 03:52:48;;;;;;;7.80;4.53;;;;;;;3.06;82.74;102165.63;4955457;28;20026;-81
2022/12/02 03:55:13;;;;;;;4.72;3.45;;;;;;;3.07;83.31;102155.41;4939496;28;20027;-82
2022/12/02 03:57:41;;;;;;;5.45;4.05;;;;;;;2.94;81.93;102133.16;4954951;28;20097;-81
2022/12/02 04:00:07;;;;;;;3.40;2.20;;;;;;;3.31;82.41;102180.28;4972213;28;20027;-81
2022/12/02 04:02:32;;;;;;;3.55;2.90;;;;;;;3.32;81.87;102165.78;4939155;28;20023;-81
2022/12/02 04:04:58;;;;;;;2.40;1.80;;;;;;;3.30;81.40;102164.91;4939273;28;20491;-81
2022/12/02 04:07:23;;;;;;;4.43;3.08;;;;;;;3.37;81.35;102170.09;4954916;28;20114;-81
2022/12/02 04:09:49;;;;;;;4.85;2.85;;;;;;;2.98;81.22;102114.44;4923462;28;20033;-81
2022/12/02 04:12:14;;;;;;;5.03;2.47;;;;;;;3.22;80.73;102169.13;4955122;28;20543;-81
2022/12/02 04:14:40;;;;;;;2.25;1.92;;;;;;;3.23;81.38;102171.69;4939165;28;20030;-81
2022/12/02 04:17:05;;;;;;;3.75;2.15;;;;;;;3.27;81.38;102168.31;4938635;28;20082;-81
2022/12/02 04:19:31;;;;;;;5.70;2.42;;;;;;;3.27;81.17;102170.03;4972156;28;20027;-81
2022/12/02 04:21:56;;;;;;;7.00;4.07;;;;;;;3.34;81.19;102171.75;4939059;28;20480;-81
2022/12/02 04:24:22;;;;;;;6.60;2.58;;;;;;;3.50;80.26;102180.38;4938880;28;20030;-81
2022/12/02 04:26:47;;;;;;;3.78;2.85;;;;;;;3.39;80.13;102172.66;4923412;28;20070;-83
2022/12/02 04:29:13;;;;;;;4.43;3.42;;;;;;;3.38;80.48;102186.28;4955251;28;20023;-81
2022/12/02 04:31:38;;;;;;;5.03;1.85;;;;;;;3.13;81.02;102164.81;4954639;28;20058;-82
2022/12/02 04:34:04;;;;;;;5.88;2.55;;;;;;;3.19;81.62;102180.19;4939322;28;20026;-83
2022/12/02 04:36:29;;;;;;;6.72;3.55;;;;;;;3.19;81.68;102182.75;4923038;28;20023;-83
2022/12/02 04:38:55;;;;;;;4.88;3.08;;;;;;;3.16;81.86;102175.94;4954514;28;20054;-82
2022/12/02 04:41:20;;;;;;;2.13;1.92;;;;;;;3.19;81.72;102179.34;4939041;28;20031;-82
2022/12/02 04:43:46;;;;;;;3.90;2.35;;;;;;;2.82;81.77;102149.25;4922931;28;20026;-83
2022/12/02 04:46:11;;;;;;;3.50;2.03;;;;;;;2.90;82.14;102180.00;4971609;28;20089;-81
2022/12/02 04:48:37;;;;;;;3.83;2.90;;;;;;;2.69;81.84;102156.84;4922840;28;20540;-81
2022/12/02 04:51:02;;;;;;;4.88;2.17;;;;;;;2.76;82.93;102174.78;4954371;28;20030;-81
2022/12/02 04:53:28;;;;;;;4.15;3.50;;;;;;;2.87;83.53;102195.31;4938719;28;20521;-82
2022/12/02 04:55:53;;;;;;;8.57;3.58;;;;;;;2.94;83.21;102197.06;4940832;28;20050;-81
2022/12/02 04:58:18;;;;;;;7.15;4.05;;;;;;;2.87;83.04;102197.88;4958634;28;20034;-82
2022/12/02 05:00:44;;;;;;;9.27;3.92;;;;;;;2.90;82.73;102191.94;4950944;28;20031;-83
2022/12/02 05:03:09;;;;;;;9.82;5.18;;;;;;;2.93;83.20;102208.13;4942354;28;20039;-83
2022/12/02 05:05:35;;;;;;;6.55;4.20;;;;;;;2.84;82.69;102193.56;4958135;28;20042;-83
2022/12/02 05:08:00;;;;;;;5.95;3.72;;;;;;;2.90;83.19;102195.34;4942380;28;20484;-82
2022/12/02 05:10:26;;;;;;;13.38;5.95;;;;;;;2.89;83.02;102201.28;4958062;28;20500;-82
2022/12/02 05:12:52;;;;;;;8.98;3.90;;;;;;;2.88;82.94;102195.34;4938716;28;20031;-83
2022/12/02 05:15:19;;;;;;;6.15;3.42;;;;;;;3.29;83.58;102201.56;4935614;28;20118;-82
2022/12/02 05:17:44;;;;;;;9.85;4.13;;;;;;;3.13;81.67;102190.38;4942265;28;20047;-78
2022/12/02 05:20:10;;;;;;;7.57;5.72;;;;;;;2.94;82.05;102179.16;4974401;28;20033;-79
2022/12/02 05:22:36;;;;;;;10.40;3.45;;;;;;;3.08;82.67;102207.41;4942012;28;20412;-85
2022/12/02 05:25:01;;;;;;;5.00;2.67;;;;;;;3.10;82.65;102193.78;4948339;28;20019;-84
2022/12/02 05:27:27;;;;;;;7.38;4.43;;;;;;;3.03;82.41;102192.00;4945501;28;20105;-82
2022/12/02 05:29:52;;;;;;;12.77;4.05;;;;;;;2.97;82.45;102179.22;4942198;29;20034;-90
2022/12/02 05:32:18;;;;;;;6.65;3.85;;;;;;;3.15;82.20;102206.63;4906993;29;20023;-81
2022/12/02 05:34:43;;;;;;;4.88;2.65;;;;;;;3.18;81.37;102198.94;4922615;29;20106;-80
2022/12/02 05:37:09;;;;;;;4.63;3.60;;;;;;;3.06;81.65;102196.31;4938681;29;20055;-91
2022/12/02 05:39:34;;;;;;;14.60;6.00;;;;;;;3.08;82.69;102203.16;4949960;28;20089;-91
2022/12/02 05:42:01;;;;;;;32.75;19.55;;;;;;;3.13;82.19;102198.06;4940989;28;20026;-85
2022/12/02 05:44:26;;;;;;;11.15;7.38;;;;;;;3.19;82.10;102202.38;4976474;28;20030;-82
2022/12/02 05:46:52;;;;;;;11.10;4.75;;;;;;;3.11;82.23;102202.31;4955582;28;20479;-76
2022/12/02 05:49:19;;;;;;;5.75;3.83;;;;;;;3.13;82.24;102198.91;4967778;28;20027;-85
2022/12/02 05:51:50;;;;;;;8.50;3.42;;;;;;;3.16;81.66;102205.78;4926388;28;20058;-88
2022/12/02 05:54:19;;;;;;;3.88;2.65;;;;;;;2.89;82.22;102185.97;4956835;28;20027;-85
2022/12/02 05:56:45;;;;;;;5.38;3.25;;;;;;;3.02;82.31;102199.69;4957219;28;20096;-79
2022/12/02 05:59:14;;;;;;;4.45;3.28;;;;;;;3.07;82.29;102213.38;4956181;28;20030;-80
2022/12/02 06:01:39;;;;;;;9.02;5.30;;;;;;;3.10;82.95;102215.94;4923001;28;20093;-80
2022/12/02 06:04:18;;;;;;;3.63;2.88;;;;;;;3.08;81.76;102200.59;4973836;28;20440;-80
2022/12/02 06:06:44;;;;;;;5.15;2.10;;;;;;;3.07;82.08;102205.69;4937979;28;20035;-83
2022/12/02 06:09:17;;;;;;;4.40;3.10;;;;;;;2.98;82.43;102205.63;4932646;28;20480;-83
2022/12/02 06:11:43;;;;;;;7.35;3.47;;;;;;;3.07;83.05;102228.72;4929636;28;20023;-92
2022/12/02 06:14:14;;;;;;;14.18;8.82;;;;;;;2.96;83.04;102203.06;4940674;29;20038;-88
2022/12/02 06:16:40;;;;;;;5.00;3.15;;;;;;;3.25;82.28;102225.44;4935431;29;20051;-86
2022/12/02 06:19:13;;;;;;;5.78;4.28;;;;;;;3.20;81.66;102211.75;4903058;29;20031;-90
2022/12/02 06:21:39;;;;;;;8.82;4.57;;;;;;;3.46;81.95;102223.00;4934554;29;20097;-85
2022/12/02 06:24:05;;;;;;;5.20;4.03;;;;;;;3.36;80.79;102209.31;4941256;28;20460;-89
2022/12/02 06:26:30;;;;;;;9.07;5.35;;;;;;;3.47;81.61;102206.81;4954275;28;20493;-91
2022/12/02 06:28:58;;;;;;;5.72;3.33;;;;;;;3.36;80.57;102213.56;4956239;28;20083;-84
2022/12/02 06:31:38;;;;;;;5.10;3.05;;;;;;;3.49;79.66;102225.56;4972753;28;20023;-86
2022/12/02 06:34:26;;;;;;;5.90;4.78;;;;;;;3.60;80.38;102228.19;4957598;28;20043;-85
2022/12/02 06:36:52;;;;;;;5.50;3.92;;;;;;;3.41;80.44;102199.09;4972309;28;20033;-88
2022/12/02 06:39:20;;;;;;;4.20;2.72;;;;;;;3.51;79.75;102221.31;4950089;28;20022;-89
2022/12/02 06:41:45;;;;;;;5.03;3.15;;;;;;;3.36;79.54;102205.91;4955899;28;20034;-84
2022/12/02 06:47:36;;;;;;;6.03;3.60;;;;;;;3.39;80.47;102241.72;4948602;29;20126;-90
2022/12/02 06:50:05;;;;;;;1.83;1.42;;;;;;;3.36;80.84;102244.25;4952752;29;20039;-84
2022/12/02 06:52:32;;;;;;;5.90;4.03;;;;;;;3.15;81.20;102212.59;4953895;29;20382;-88
2022/12/02 06:54:58;;;;;;;5.03;3.25;;;;;;;3.31;80.97;102248.47;4935287;29;20027;-82
2022/12/02 06:57:23;;;;;;;7.10;4.65;;;;;;;3.36;81.20;102239.16;4937404;28;20434;-84
2022/12/02 06:59:49;;;;;;;4.75;3.20;;;;;;;3.31;80.66;102228.00;4948062;28;20099;-86
2022/12/02 07:02:36;;;;;;;4.07;3.50;;;;;;;3.33;81.25;102244.22;4923910;29;20031;-87
2022/12/02 07:05:01;;;;;;;4.65;3.63;;;;;;;3.37;80.59;102251.94;4949250;28;20034;-90
2022/12/02 07:07:28;;;;;;;5.35;4.18;;;;;;;3.28;80.64;102251.88;4941379;29;20027;-89
2022/12/02 07:09:57;;;;;;;5.55;4.25;;;;;;;3.31;80.66;102254.44;4930834;29;20075;-94
2022/12/02 07:12:30;;;;;;;8.70;3.80;;;;;;;3.15;80.96;102230.47;4942425;29;20114;-89
2022/12/02 07:14:56;;;;;;;12.38;4.55;;;;;;;3.30;81.52;102257.00;4923574;29;20039;-82
2022/12/02 07:17:25;;;;;;;6.03;4.18;;;;;;;3.36;80.41;102255.34;4937811;29;20043;-88
2022/12/02 07:20:06;;;;;;;8.73;4.18;;;;;;;3.31;80.73;102240.81;4957056;28;20123;-89
2022/12/02 07:23:14;;;;;;;6.72;4.38;;;;;;;3.32;80.63;102232.28;4949346;28;20083;-87
2022/12/02 07:25:51;;;;;;;5.78;2.42;;;;;;;3.56;81.87;102267.41;4934811;28;20044;-88
2022/12/02 07:28:23;;;;;;;8.38;4.68;;;;;;;3.33;80.24;102223.75;4939507;29;20033;-90
2022/12/02 07:31:14;;;;;;;4.95;3.85;;;;;;;3.52;79.50;102258.00;4953683;28;20417;-82
2022/12/02 07:33:40;;;;;;;5.55;2.65;;;;;;;3.50;79.54;102272.50;4961070;28;20568;-81
2022/12/02 07:36:05;;;;;;;3.80;2.55;;;;;;;3.47;80.32;102263.09;4951348;28;20023;-80
2022/12/02 07:38:31;;;;;;;5.40;3.20;;;;;;;3.50;80.44;102265.66;4967156;28;20027;-81
2022/12/02 07:40:56;;;;;;;7.43;4.57;;;;;;;3.44;80.64;102252.81;4952442;28;20035;-81
2022/12/02 07:43:22;;;;;;;7.15;5.22;;;;;;;3.59;79.73;102273.41;4952502;28;20074;-82
2022/12/02 07:45:47;;;;;;;11.85;6.93;;;;;;;3.33;79.65;102249.34;4953203;28;20493;-89
2022/12/02 07:48:13;;;;;;;6.50;4.15;;;;;;;3.49;80.50;102261.41;4953716;28;20026;-90
2022/12/02 07:50:38;;;;;;;4.68;2.60;;;;;;;3.47;80.46;102268.22;4920336;29;20062;-88
2022/12/02 07:53:04;;;;;;;6.65;2.80;;;;;;;3.51;81.14;102262.25;4951205;28;20063;-84
2022/12/02 07:55:29;;;;;;;5.60;4.00;;;;;;;3.62;80.47;102273.41;4963795;28;20047;-86
2022/12/02 07:57:55;;;;;;;5.28;4.15;;;;;;;3.62;80.05;102278.53;4940898;28;20031;-89
2022/12/02 08:00:21;;;;;;;5.93;3.63;;;;;;;3.47;80.24;102242.63;4968475;28;20031;-83
2022/12/02 08:02:46;;;;;;;8.73;5.00;;;;;;;3.79;79.81;102275.22;4949202;29;20051;-93
2022/12/02 08:05:12;;;;;;;8.15;4.00;;;;;;;3.82;79.27;102286.31;4960226;29;20042;-88
2022/12/02 08:07:37;;;;;;;3.88;3.42;;;;;;;3.69;79.17;102276.88;4919551;29;20035;-88
2022/12/02 08:10:04;;;;;;;6.72;3.03;;;;;;;3.68;78.59;102277.72;4935261;29;20040;-92
2022/12/02 08:12:30;;;;;;;10.70;3.13;;;;;;;3.57;79.44;102276.81;4924979;29;20038;-88
2022/12/02 08:14:55;;;;;;;4.00;2.80;;;;;;;3.56;79.10;102277.66;4937184;29;20035;-87
2022/12/02 08:17:21;;;;;;;3.40;2.08;;;;;;;3.51;79.05;102292.97;4950113;28;20047;-85
2022/12/02 08:19:46;;;;;;;7.28;4.97;;;;;;;3.16;79.96;102234.75;4936197;29;20608;-82
2022/12/02 08:22:12;;;;;;;5.38;3.63;;;;;;;3.48;80.29;102295.50;4950691;28;20493;-83
2022/12/02 08:24:37;;;;;;;8.77;4.85;;;;;;;3.52;79.78;102297.22;4949026;28;20038;-83
2022/12/02 08:27:03;;;;;;;6.88;4.05;;;;;;;3.26;80.46;102239.94;4950777;28;20031;-82
2022/12/02 08:29:29;;;;;;;4.07;2.95;;;;;;;3.60;79.24;102280.22;4950212;28;20459;-84
2022/12/02 08:31:54;;;;;;;11.60;4.63;;;;;;;3.66;79.98;102284.53;4922150;29;20130;-86
2022/12/02 08:34:20;;;;;;;5.50;3.95;;;;;;;3.53;79.71;102252.88;4932784;29;20027;-87
2022/12/02 08:36:45;;;;;;;9.38;4.97;;;;;;;3.77;79.89;102292.28;4950394;29;20514;-83
2022/12/02 08:39:11;;;;;;;4.03;3.05;;;;;;;3.77;79.37;102295.69;4954208;28;20062;-80
2022/12/02 08:41:37;;;;;;;5.38;3.60;;;;;;;3.66;78.77;102271.75;4951148;28;20122;-87
2022/12/02 08:44:02;;;;;;;8.80;6.40;;;;;;;3.71;79.46;102280.28;4944055;28;20079;-88
2022/12/02 08:46:28;;;;;;;9.30;3.90;;;;;;;3.80;79.19;102288.03;4931155;29;20027;-81
2022/12/02 08:48:53;;;;;;;4.32;2.28;;;;;;;3.79;78.89;102272.66;4945518;29;20035;-87
2022/12/02 08:51:19;;;;;;;5.22;3.42;;;;;;;3.66;79.03;102262.38;4949655;28;20031;-87
2022/12/02 08:53:44;;;;;;;6.65;4.10;;;;;;;3.90;79.72;102288.94;4930570;28;20125;-82
2022/12/02 08:56:10;;;;;;;5.05;2.95;;;;;;;3.93;79.46;102278.69;4944967;29;20031;-88
2022/12/02 08:58:35;;;;;;;3.28;2.28;;;;;;;3.94;78.21;102272.75;4942691;29;20532;-88
2022/12/02 09:01:01;;;;;;;3.10;2.25;;;;;;;4.03;78.34;102281.34;4953059;28;20031;-92
2022/12/02 09:03:26;;;;;;;2.70;2.00;;;;;;;4.03;77.86;102270.19;4933915;28;20063;-89
2022/12/02 09:05:52;;;;;;;4.10;2.50;;;;;;;3.84;77.11;102253.06;4950232;28;20042;-85
2022/12/02 09:08:17;;;;;;;4.72;2.88;;;;;;;3.86;77.63;102262.47;4949424;29;20121;-82
2022/12/02 09:10:43;;;;;;;4.63;2.60;;;;;;;3.99;78.36;102287.28;4951263;29;20035;-82
2022/12/02 09:13:08;;;;;;;3.20;2.33;;;;;;;3.92;77.82;102270.16;4928416;29;20031;-82
2022/12/02 09:15:34;;;;;;;5.20;2.28;;;;;;;3.74;78.75;102250.47;4949586;28;20063;-81
2022/12/02 09:17:59;;;;;;;3.40;2.70;;;;;;;3.99;78.70;102279.59;4965514;28;20461;-81
2022/12/02 09:20:25;;;;;;;7.25;2.55;;;;;;;3.98;78.42;102271.91;4961015;28;20035;-86
2022/12/02 09:22:50;;;;;;;6.40;3.50;;;;;;;4.11;78.77;102283.03;4927230;28;20488;-88
2022/12/02 09:25:16;;;;;;;9.80;6.03;;;;;;;4.07;77.06;102258.28;4939832;28;20046;-84
2022/12/02 09:27:41;;;;;;;4.22;3.20;;;;;;;4.12;77.05;102277.06;4949783;28;20030;-86
2022/12/02 09:30:08;;;;;;;7.28;4.18;;;;;;;3.87;77.05;102237.72;4937576;28;20094;-87
2022/12/02 09:32:33;;;;;;;10.55;3.72;;;;;;;4.05;77.62;102278.78;4953497;28;20030;-88
2022/12/02 09:34:59;;;;;;;4.15;3.70;;;;;;;3.91;78.64;102239.44;4949031;28;20512;-82
2022/12/02 09:37:24;;;;;;;6.45;4.57;;;;;;;4.14;78.74;102273.69;4936441;28;20433;-85
2022/12/02 09:39:50;;;;;;;4.25;3.25;;;;;;;4.07;78.35;102238.66;4942477;28;20042;-86
2022/12/02 09:42:15;;;;;;;4.95;3.33;;;;;;;4.32;77.40;102265.19;4957684;28;20054;-85
2022/12/02 09:44:41;;;;;;;8.20;3.55;;;;;;;4.22;76.45;102261.75;4954411;28;20023;-86
2022/12/02 09:47:06;;;;;;;4.30;2.90;;;;;;;4.32;75.55;102258.34;4945092;28;20110;-86
2022/12/02 09:49:32;;;;;;;6.18;5.07;;;;;;;4.23;75.99;102252.38;4972790;28;20508;-85
2022/12/02 09:51:59;;;;;;;4.78;2.67;;;;;;;4.38;75.44;102256.69;4959086;28;20062;-88
2022/12/02 09:54:24;;;;;;;4.93;2.95;;;;;;;4.27;75.50;102248.97;4973410;28;20027;-88
2022/12/02 09:56:50;;;;;;;7.65;3.85;;;;;;;4.32;75.21;102258.34;4936912;28;20121;-89
2022/12/02 09:59:15;;;;;;;4.93;3.13;;;;;;;4.20;75.44;102249.78;4936085;28;20517;-87
2022/12/02 10:01:46;;;;;;;3.88;2.78;;;;;;;4.08;75.71;102231.81;4930904;28;20030;-82
2022/12/02 10:04:17;;;;;;;7.38;4.00;;;;;;;4.27;75.61;102254.94;4927464;28;20026;-80
2022/12/02 10:06:42;;;;;;;6.03;3.40;;;;;;;4.36;75.39;102259.25;4936319;28;20031;-82
2022/12/02 10:09:16;;;;;;;5.05;3.08;;;;;;;4.32;74.75;102249.81;4950226;28;20090;-88
2022/12/02 10:11:41;;;;;;;2.10;1.38;;;;;;;4.28;74.78;102233.59;4939978;28;20061;-85
2022/12/02 10:14:12;;;;;;;2.45;2.25;;;;;;;4.26;74.36;102237.88;4924155;28;20492;-81
2022/12/02 10:16:38;;;;;;;3.33;2.03;;;;;;;4.41;75.61;102256.69;4940858;28;20057;-80
2022/12/02 10:19:04;;;;;;;5.65;2.88;;;;;;;4.46;75.01;102244.75;4958470;28;20109;-80
2022/12/02 10:21:29;;;;;;;1.85;1.58;;;;;;;4.50;75.45;102246.44;4958814;28;20054;-80
2022/12/02 10:24:00;;;;;;;2.83;1.60;;;;;;;4.43;74.72;102240.47;4956241;28;20031;-93
2022/12/02 10:26:25;;;;;;;6.32;4.45;;;;;;;4.37;74.21;102232.75;4930533;28;20118;-79
2022/12/02 10:29:27;;;;;;;5.60;3.08;;;;;;;4.61;75.96;102249.88;4946532;29;20057;-83
2022/12/02 10:32:00;;;;;;;5.15;3.30;;;;;;;4.68;75.54;102243.06;4921128;28;20051;-87
2022/12/02 10:34:27;;;;;;;2.58;2.15;;;;;;;4.82;75.59;102244.81;4940783;28;20106;-92
2022/12/02 10:36:52;;;;;;;4.78;2.17;;;;;;;4.86;73.80;102253.34;4956950;28;20023;-83
2022/12/02 10:39:29;;;;;;;2.72;2.13;;;;;;;4.65;73.66;102228.53;4954817;28;20061;-84
2022/12/02 10:42:03;;;;;;;5.22;2.60;;;;;;;4.75;73.38;102250.78;4924395;28;20026;-83
2022/12/02 10:44:29;;;;;;;3.72;1.23;;;;;;;4.57;72.81;102207.16;4970862;28;20443;-79
2022/12/02 10:47:10;;;;;;;2.20;1.48;;;;;;;4.82;72.76;102243.94;4937399;28;20038;-83
2022/12/02 10:49:35;;;;;;;3.28;2.00;;;;;;;4.62;73.39;102231.09;4921632;28;20038;-81
2022/12/02 10:52:11;;;;;;;3.45;2.60;;;;;;;4.46;72.81;102199.47;4940235;28;20575;-82
2022/12/02 10:54:38;;;;;;;3.85;2.20;;;;;;;4.63;73.32;102237.94;4937430;28;20113;-88
2022/12/02 10:57:03;;;;;;;4.20;2.38;;;;;;;4.66;74.23;102242.22;4954185;28;20034;-80
2022/12/02 10:59:29;;;;;;;3.78;2.85;;;;;;;4.51;73.55;102243.03;4924753;28;20045;-81
2022/12/02 11:01:54;;;;;;;3.88;2.17;;;;;;;4.53;73.37;102241.34;4923274;29;20035;-79
2022/12/02 11:04:20;;;;;;;3.60;2.08;;;;;;;4.40;73.94;102239.59;4936556;28;20055;-95
2022/12/02 11:06:46;;;;;;;3.50;2.10;;;;;;;4.44;74.11;102243.91;4940108;28;20062;-86
2022/12/02 11:09:17;;;;;;;7.65;3.22;;;;;;;4.45;73.96;102251.56;4955496;28;20098;-91
2022/12/02 11:11:43;;;;;;;4.72;2.80;;;;;;;4.52;74.50;102245.63;4926152;28;20034;-89
2022/12/02 11:14:11;;;;;;;6.47;2.65;;;;;;;4.58;74.88;102247.31;4939078;28;20118;-86
2022/12/02 11:16:36;;;;;;;3.10;2.45;;;;;;;4.52;74.58;102249.88;4939416;28;20070;-90
2022/12/02 11:19:09;;;;;;;6.03;3.55;;;;;;;4.47;75.14;102254.13;4957749;28;20063;-85
2022/12/02 11:21:39;;;;;;;6.85;3.50;;;;;;;4.48;75.37;102258.41;4953923;28;20031;-94
2022/12/02 11:24:25;;;;;;;7.50;3.83;;;;;;;4.22;75.16;102220.75;4926686;28;20051;-83
2022/12/02 11:27:02;;;;;;;6.82;3.78;;;;;;;4.44;74.72;102259.28;4972200;28;21102;-88
2022/12/02 11:29:30;;;;;;;3.50;3.15;;;;;;;4.40;75.13;102254.97;4971060;28;20022;-84
2022/12/02 11:32:00;;;;;;;4.22;2.17;;;;;;;4.34;75.18;102249.84;4954134;28;20046;-84
2022/12/02 11:34:59;;;;;;;6.82;3.38;;;;;;;4.36;75.31;102253.25;4969347;28;20031;-89
2022/12/02 11:37:34;;;;;;;12.73;2.88;;;;;;;4.39;76.38;102256.69;4910404;28;20039;-86